»·PEaware :: CREEP35 KEND-KEND

CREEP35 :: KEND-KEND

FLIGHT INFORMATION

Flight Status: Arrived
Operator: Unknown
More flights by this operator :: More flights under this callsign
Pilot: J. D. (21552)
Aircraft: BEECH AIRCRAFT T-6A TEXAN
(TEX2)
More flights by this aircraft type
Origin: KEND Vance AFB
United States
Destination: KEND Vance AFB
United States
More flights between these airports :: More routes between these airports
Route: AVK
File this flight plan on PilotEdge
Remarks:
Altitude:
(Current/Filed)
null
Speed:
(Current/Filed)
0kts
Departed: 14-Jan-22 11:14 AM
Arrived: 14-Jan-22 12:02 PM
Distance/Time
Traveled:
1nm/0:48
Distance/Time
To Go:
Arrived

Flight Plot

Page will automatically refresh every two minutes.

Flight plan parsing failed; only flown route is shown


Map Options




Map Legend


Flown Route
Filed Route
Departure Airport
Arrival Airport
Navaid (VOR, NDB)
Fix

Horizontal Profiles

Position Reports

Time Latitude Longitude Heading Altitude Ground
Speed
14-Jan-22 11:10 36.333514 -97.910075 306 1310ft 0kts
14-Jan-22 11:11 36.333514 -97.910075 306 1310ft 0kts
14-Jan-22 11:12 36.333626 -97.910461 263 1310ft 5kts
14-Jan-22 11:13 36.344012 -97.910773 0 1423ft 127kts
14-Jan-22 11:15 36.393302 -97.908244 4 2733ft 207kts
14-Jan-22 11:16 36.446951 -97.902357 0 4939ft 208kts
14-Jan-22 11:17 36.505603 -97.904664 5 4974ft 208kts
14-Jan-22 11:18 36.562256 -97.897032 5 5826ft 214kts
14-Jan-22 11:19 36.603464 -97.925520 286 5936ft 207kts
14-Jan-22 11:20 36.625560 -97.992809 293 5932ft 213kts
14-Jan-22 11:21 36.649739 -98.060594 295 5891ft 214kts
14-Jan-22 11:22 36.672433 -98.127177 295 4280ft 208kts
14-Jan-22 11:23 36.692627 -98.190327 290 3997ft 182kts
14-Jan-22 11:24 36.702466 -98.254319 281 4423ft 199kts
14-Jan-22 11:25 36.714944 -98.323509 284 4360ft 208kts
14-Jan-22 11:26 36.728526 -98.393816 283 4374ft 209kts
14-Jan-22 11:27 36.742148 -98.463867 285 4492ft 204kts
14-Jan-22 11:28 36.753317 -98.533626 281 4339ft 205kts
14-Jan-22 11:29 36.764608 -98.602372 282 4432ft 201kts
14-Jan-22 11:30 36.773508 -98.668355 272 3432ft 170kts
14-Jan-22 11:31 36.758595 -98.670258 359 1753ft 135kts
14-Jan-22 11:32 36.786767 -98.678264 222 2073ft 162kts
14-Jan-22 11:33 36.758703 -98.670085 0 1706ft 114kts
14-Jan-22 11:34 36.787484 -98.678731 242 2100ft 173kts
14-Jan-22 11:35 36.756312 -98.672280 22 1766ft 120kts
14-Jan-22 11:36 36.788494 -98.676247 266 1993ft 168kts
14-Jan-22 11:36 36.754002 -98.682366 174 2729ft 149kts
14-Jan-22 11:38 36.728124 -98.633443 102 5279ft 189kts
14-Jan-22 11:38 36.716371 -98.578670 110 7304ft 198kts
14-Jan-22 11:40 36.682940 -98.505122 119 7622ft 215kts
14-Jan-22 11:41 36.650692 -98.441451 136 7465ft 221kts
14-Jan-22 11:42 36.609492 -98.385100 128 7509ft 215kts
14-Jan-22 11:42 36.578296 -98.334945 124 7296ft 228kts
14-Jan-22 11:43 36.588493 -98.261858 62 6019ft 228kts
14-Jan-22 11:45 36.621106 -98.175517 65 5991ft 239kts
14-Jan-22 11:46 36.648676 -98.098616 65 5836ft 244kts
14-Jan-22 11:46 36.671955 -98.034874 64 5882ft 242kts
14-Jan-22 11:47 36.676665 -97.954597 101 6106ft 234kts
14-Jan-22 11:48 36.660461 -97.872977 104 5880ft 248kts
14-Jan-22 11:50 36.618880 -97.810612 175 6340ft 229kts
14-Jan-22 11:50 36.563171 -97.806482 177 5922ft 246kts
14-Jan-22 11:51 36.494102 -97.801717 176 5913ft 251kts
14-Jan-22 11:52 36.424477 -97.795901 174 5908ft 249kts
14-Jan-22 11:53 36.355765 -97.792390 184 5614ft 236kts
14-Jan-22 11:54 36.291608 -97.802028 192 4846ft 233kts
14-Jan-22 11:55 36.229263 -97.824269 214 3449ft 234kts
14-Jan-22 11:56 36.204947 -97.886167 299 2153ft 198kts
14-Jan-22 11:57 36.256555 -97.903501 346 2254ft 207kts
14-Jan-22 11:58 36.307974 -97.911419 358 2194ft 184kts
14-Jan-22 11:59 36.337362 -97.898068 176 2160ft 149kts
14-Jan-22 12:00 36.332838 -97.911036 1 1337ft 107kts
14-Jan-22 12:01 36.346680 -97.910661 78 1310ft 10kts
14-Jan-22 12:02 36.346672 -97.909940 100 1310ft 0kts

Navigation Log

Ident Type
Flight plan parsing failed, navigation log unavailable